Terminal Aerodrome Forecast
Issued by NWS Des Moines, IA

Home | Current Version | Previous Version | Text Only | Print | Product List | Glossary On
Versions: 1 2 3 4 5 6 7 8 9 10 11 12 13 14
000
FTUS43 KDMX 232124 AAA
TAFALO
TAF AMD
KALO 232124Z 2321/2418 14015KT P6SM VCSH OVC015
     FM240000 14012KT P6SM BKN035
     FM240700 16010KT P6SM BKN035 WS020/21045KT
     FM241500 18011KT P6SM VCSH SCT010 BKN035=

USA.gov is the U.S. government's official web portal to all federal, state and local government web resources and services.